Time,TemperatureF,DewpointF,PressureIn,WindDirection,WindDirectionDegrees,WindSpeedMPH,WindSpeedGustMPH,Humidity,HourlyPrecipIn,Conditions,Clouds,dailyrainin,SoftwareType,DateUTC
2013-07-17 00:02:00,75.7,68.4,30.16,SW,219,0.0,0.0,78,0.00,OVC,,0.00,WeatherDisplay:10.37,2013-07-17 04:02:00,
2013-07-17 00:07:00,75.7,68.4,30.16,SW,219,0.0,0.0,78,0.00,OVC,,0.00,WeatherDisplay:10.37,2013-07-17 04:07:00,
2013-07-17 00:12:00,75.6,68.2,30.16,SW,219,0.0,0.0,78,0.00,OVC,,0.00,WeatherDisplay:10.37,2013-07-17 04:12:00,
2013-07-17 00:22:00,75.3,70.1,30.16,SW,219,0.0,0.0,84,0.00,BKN,,0.00,WeatherDisplay:10.37,2013-07-17 04:22:00,
2013-07-17 00:32:00,75.1,69.9,30.16,SW,219,0.0,0.0,84,0.00,BKN,,0.00,WeatherDisplay:10.37,2013-07-17 04:32:00,
2013-07-17 00:37:00,75.1,69.9,30.16,SW,219,0.0,0.0,84,0.00,BKN,,0.00,WeatherDisplay:10.37,2013-07-17 04:37:00,
2013-07-17 00:42:00,75.1,69.9,30.16,SW,219,0.0,0.0,84,0.00,BKN,,0.00,WeatherDisplay:10.37,2013-07-17 04:42:00,
2013-07-17 00:52:00,75.1,69.9,30.15,SW,219,0.0,1.0,84,0.00,BKN,,0.00,WeatherDisplay:10.37,2013-07-17 04:52:00,
2013-07-17 01:02:00,75.1,69.9,30.15,SW,219,0.0,1.0,84,0.00,BKN,,0.00,WeatherDisplay:10.37,2013-07-17 05:02:00,
2013-07-17 01:07:00,75.1,71.9,30.15,SW,219,0.0,0.0,90,0.00,CLR,,0.00,WeatherDisplay:10.37,2013-07-17 05:07:00,
2013-07-17 01:12:00,75.0,71.9,30.15,SW,219,0.0,0.0,90,0.00,CLR,,0.00,WeatherDisplay:10.37,2013-07-17 05:12:00,
2013-07-17 01:22:00,74.9,71.8,30.15,SW,219,0.0,1.0,90,0.00,CLR,,0.00,WeatherDisplay:10.37,2013-07-17 05:22:00,
2013-07-17 01:32:00,74.8,71.7,30.15,SW,219,0.0,2.0,90,0.00,CLR,,0.00,WeatherDisplay:10.37,2013-07-17 05:32:00,
2013-07-17 01:42:00,74.8,71.7,30.15,SW,219,1.0,2.0,90,0.00,CLR,,0.00,WeatherDisplay:10.37,2013-07-17 05:42:00,
2013-07-17 01:52:00,74.7,71.6,30.15,SW,219,0.0,1.0,90,0.00,CLR,,0.00,WeatherDisplay:10.37,2013-07-17 05:52:00,
2013-07-17 01:57:00,74.6,71.5,30.15,SW,219,0.0,0.0,90,0.00,CLR,,0.00,WeatherDisplay:10.37,2013-07-17 05:57:00,
2013-07-17 02:07:00,74.2,72.0,30.15,SW,219,1.0,2.0,93,0.00,CLR,,0.00,WeatherDisplay:10.37,2013-07-17 06:07:00,
2013-07-17 02:12:00,74.2,72.0,30.15,SW,219,0.0,2.0,93,0.00,CLR,,0.00,WeatherDisplay:10.37,2013-07-17 06:12:00,
2013-07-17 02:22:00,73.8,71.7,30.14,SW,219,0.0,1.0,93,0.00,CLR,,0.00,WeatherDisplay:10.37,2013-07-17 06:22:00,
2013-07-17 02:32:00,73.7,71.9,30.14,SW,219,1.0,3.0,94,0.00,CLR,,0.00,WeatherDisplay:10.37,2013-07-17 06:32:00,
2013-07-17 02:42:00,73.5,71.7,30.15,SW,219,1.0,2.0,94,0.00,CLR,,0.00,WeatherDisplay:10.37,2013-07-17 06:42:00,
2013-07-17 02:52:00,73.5,71.6,30.15,SW,219,0.0,1.0,94,0.00,CLR,,0.00,WeatherDisplay:10.37,2013-07-17 06:52:00,
2013-07-17 03:02:00,73.3,71.5,30.14,SW,219,0.0,0.0,94,0.00,CLR,,0.00,WeatherDisplay:10.37,2013-07-17 07:02:00,
2013-07-17 03:07:00,73.2,71.3,30.14,SW,219,0.0,1.0,94,0.00,CLR,,0.00,WeatherDisplay:10.37,2013-07-17 07:07:00,
2013-07-17 03:12:00,73.1,71.3,30.14,SW,219,0.0,1.0,94,0.00,CLR,,0.00,WeatherDisplay:10.37,2013-07-17 07:12:00,
2013-07-17 03:22:00,73.1,71.3,30.15,SW,219,0.0,3.0,94,0.00,CLR,,0.00,WeatherDisplay:10.37,2013-07-17 07:22:00,
2013-07-17 03:32:00,73.1,71.3,30.15,SW,219,0.0,1.0,94,0.00,CLR,,0.00,WeatherDisplay:10.37,2013-07-17 07:32:00,
2013-07-17 03:42:00,72.9,72.9,30.15,SW,219,0.0,2.0,100,0.00,CLR,,0.00,WeatherDisplay:10.37,2013-07-17 07:42:00,
2013-07-17 03:52:00,72.8,72.8,30.15,SW,219,0.0,0.0,100,0.00,CLR,,0.00,WeatherDisplay:10.37,2013-07-17 07:52:00,
2013-07-17 04:02:00,73.1,71.2,30.15,SW,219,1.0,2.0,94,0.00,CLR,,0.00,WeatherDisplay:10.37,2013-07-17 08:02:00,
2013-07-17 04:07:00,73.3,71.4,30.15,SW,219,0.0,1.0,94,0.00,CLR,,0.00,WeatherDisplay:10.37,2013-07-17 08:07:00,
2013-07-17 04:12:00,73.0,71.2,30.15,SW,219,0.0,1.0,94,0.00,CLR,,0.00,WeatherDisplay:10.37,2013-07-17 08:12:00,
2013-07-17 04:22:00,72.6,71.4,30.15,SW,219,0.0,0.0,96,0.00,CLR,,0.00,WeatherDisplay:10.37,2013-07-17 08:22:00,
2013-07-17 04:27:00,72.4,71.2,30.15,SW,219,0.0,1.0,96,0.00,CLR,,0.00,WeatherDisplay:10.37,2013-07-17 08:27:00,
2013-07-17 04:37:00,72.6,71.4,30.15,SW,219,0.0,0.0,96,0.00,CLR,,0.00,WeatherDisplay:10.37,2013-07-17 08:37:00,
2013-07-17 04:42:00,72.6,71.4,30.15,SW,219,0.0,0.0,96,0.00,CLR,,0.00,WeatherDisplay:10.37,2013-07-17 08:42:00,
2013-07-17 04:52:00,72.3,71.1,30.16,SW,219,0.0,1.0,96,0.00,CLR,,0.00,WeatherDisplay:10.37,2013-07-17 08:52:00,
2013-07-17 05:02:00,72.2,71.0,30.16,SW,219,0.0,0.0,96,0.00,CLR,,0.00,WeatherDisplay:10.37,2013-07-17 09:02:00,
2013-07-17 05:07:00,72.2,71.0,30.16,SW,219,0.0,1.0,96,0.00,CLR,,0.00,WeatherDisplay:10.37,2013-07-17 09:07:00,
2013-07-17 05:12:00,72.1,70.9,30.16,SW,219,0.0,1.0,96,0.00,CLR,,0.00,WeatherDisplay:10.37,2013-07-17 09:12:00,
2013-07-17 05:22:00,72.1,70.9,30.16,SW,219,0.0,0.0,96,0.00,CLR,,0.00,WeatherDisplay:10.37,2013-07-17 09:22:00,
2013-07-17 05:32:00,72.1,70.9,30.17,SW,219,0.0,0.0,96,0.00,CLR,,0.00,WeatherDisplay:10.37,2013-07-17 09:32:00,
2013-07-17 05:42:00,71.9,70.7,30.16,SW,219,1.0,2.0,96,0.00,CLR,,0.00,WeatherDisplay:10.37,2013-07-17 09:42:00,
2013-07-17 05:52:00,72.2,71.0,30.17,SW,219,0.0,1.0,96,0.00,CLR,,0.00,WeatherDisplay:10.37,2013-07-17 09:52:00,
2013-07-17 06:02:00,72.8,70.6,30.17,SW,219,1.0,2.0,93,0.00,CLR,,0.00,WeatherDisplay:10.37,2013-07-17 10:02:00,
2013-07-17 06:07:00,73.1,71.0,30.17,SW,219,0.0,1.0,93,0.00,CLR,,0.00,WeatherDisplay:10.37,2013-07-17 10:07:00,
2013-07-17 06:12:00,73.5,71.4,30.17,SW,219,1.0,3.0,93,0.00,CLR,,0.00,WeatherDisplay:10.37,2013-07-17 10:12:00,
2013-07-17 06:22:00,74.2,74.2,30.18,West,271,0.0,3.0,100,0.00,CLR,,0.00,WeatherDisplay:10.37,2013-07-17 10:22:00,
2013-07-17 06:32:00,74.7,74.7,30.18,West,271,0.0,1.0,100,0.00,CLR,,0.00,WeatherDisplay:10.37,2013-07-17 10:32:00,
2013-07-17 06:42:00,75.6,75.6,30.18,West,271,0.0,1.0,100,0.00,CLR,,0.00,WeatherDisplay:10.37,2013-07-17 10:42:00,
2013-07-17 06:47:00,75.9,75.9,30.18,West,271,0.0,1.0,100,0.00,CLR,,0.00,WeatherDisplay:10.37,2013-07-17 10:47:00,
2013-07-17 06:57:00,76.9,76.9,30.18,West,271,0.0,0.0,100,0.00,CLR,,0.00,WeatherDisplay:10.37,2013-07-17 10:57:00,
2013-07-17 07:02:00,77.3,77.3,30.18,West,271,0.0,0.0,100,0.00,CLR,,0.00,WeatherDisplay:10.37,2013-07-17 11:02:00,
2013-07-17 07:07:00,77.9,74.7,30.18,West,271,0.0,1.0,90,0.00,CLR,,0.00,WeatherDisplay:10.37,2013-07-17 11:07:00,
2013-07-17 07:12:00,78.2,75.0,30.18,West,271,0.0,1.0,90,0.00,CLR,,0.00,WeatherDisplay:10.37,2013-07-17 11:12:00,
2013-07-17 07:22:00,78.8,75.6,30.18,West,271,0.0,0.0,90,0.00,CLR,,0.00,WeatherDisplay:10.37,2013-07-17 11:22:00,
2013-07-17 07:32:00,79.7,76.5,30.18,West,271,0.0,0.0,90,0.00,CLR,,0.00,WeatherDisplay:10.37,2013-07-17 11:32:00,
2013-07-17 07:42:00,80.5,77.3,30.18,West,271,0.0,0.0,90,0.00,CLR,,0.00,WeatherDisplay:10.37,2013-07-17 11:42:00,
2013-07-17 07:52:00,81.5,78.2,30.18,West,271,0.0,0.0,90,0.00,CLR,,0.00,WeatherDisplay:10.37,2013-07-17 11:52:00,
2013-07-17 08:02:00,81.8,78.6,30.18,West,271,0.0,0.0,90,0.00,CLR,,0.00,WeatherDisplay:10.37,2013-07-17 12:02:00,
2013-07-17 08:07:00,81.6,78.4,30.18,West,271,0.0,1.0,90,0.00,CLR,,0.00,WeatherDisplay:10.37,2013-07-17 12:07:00,
2013-07-17 08:12:00,81.0,77.7,30.18,West,271,0.0,1.0,90,0.00,CLR,,0.00,WeatherDisplay:10.37,2013-07-17 12:12:00,
2013-07-17 08:22:00,80.1,69.0,30.18,West,271,1.0,2.0,69,0.00,CLR,,0.00,WeatherDisplay:10.37,2013-07-17 12:22:00,
2013-07-17 08:32:00,79.7,68.6,30.18,SSW,194,5.0,5.0,69,0.00,CLR,,0.00,WeatherDisplay:10.37,2013-07-17 12:32:00,
2013-07-17 08:42:00,79.8,68.7,30.18,South,176,3.0,5.0,69,0.00,CLR,,0.00,WeatherDisplay:10.37,2013-07-17 12:42:00,
2013-07-17 08:52:00,79.9,68.8,30.19,South,175,5.0,6.0,69,0.00,CLR,,0.00,WeatherDisplay:10.37,2013-07-17 12:52:00,
2013-07-17 09:02:00,79.7,68.6,30.19,South,173,3.0,5.0,69,0.00,CLR,,0.00,WeatherDisplay:10.37,2013-07-17 13:02:00,
2013-07-17 09:07:00,79.7,63.6,30.19,South,173,3.0,5.0,58,0.00,CLR,,0.00,WeatherDisplay:10.37,2013-07-17 13:07:00,
2013-07-17 09:13:00,80.0,63.9,30.19,South,173,5.0,6.0,58,0.00,CLR,,0.00,WeatherDisplay:10.37,2013-07-17 13:13:00,
2013-07-17 09:22:00,80.3,64.2,30.19,South,173,5.0,6.0,58,0.00,CLR,,0.00,WeatherDisplay:10.37,2013-07-17 13:22:00,
2013-07-17 09:32:00,80.1,64.0,30.18,South,173,6.0,7.0,58,0.00,CLR,,0.00,WeatherDisplay:10.37,2013-07-17 13:32:00,
2013-07-17 09:42:00,80.1,64.0,30.18,South,172,6.0,6.0,58,0.00,CLR,,0.00,WeatherDisplay:10.37,2013-07-17 13:42:00,
2013-07-17 09:52:00,80.3,64.2,30.18,SSE,156,8.0,9.0,58,0.00,CLR,,0.00,WeatherDisplay:10.37,2013-07-17 13:52:00,
2013-07-17 10:02:00,80.3,64.2,30.18,SSE,155,7.0,8.0,58,0.00,CLR,,0.00,WeatherDisplay:10.37,2013-07-17 14:02:00,
2013-07-17 10:07:00,80.4,63.8,30.18,SSE,162,6.0,7.0,57,0.00,CLR,,0.00,WeatherDisplay:10.37,2013-07-17 14:07:00,
2013-07-17 10:12:00,80.4,63.8,30.18,SSE,159,7.0,8.0,57,0.00,CLR,,0.00,WeatherDisplay:10.37,2013-07-17 14:12:00,
2013-07-17 10:22:00,80.5,63.9,30.18,SSE,160,8.0,9.0,57,0.00,CLR,,0.00,WeatherDisplay:10.37,2013-07-17 14:22:00,
2013-07-17 10:32:00,80.3,63.7,30.17,SSE,160,9.0,12.0,57,0.00,CLR,,0.00,WeatherDisplay:10.37,2013-07-17 14:32:00,
2013-07-17 10:42:00,80.2,63.6,30.17,SSE,159,9.0,12.0,57,0.00,CLR,,0.00,WeatherDisplay:10.37,2013-07-17 14:42:00,
2013-07-17 10:52:00,80.2,63.6,30.17,SSE,163,9.0,12.0,57,0.00,CLR,,0.00,WeatherDisplay:10.37,2013-07-17 14:52:00,
2013-07-17 11:02:00,80.3,63.7,30.17,SSE,159,8.0,12.0,57,0.00,CLR,,0.00,WeatherDisplay:10.37,2013-07-17 15:02:00,
2013-07-17 11:07:00,80.6,63.9,30.17,SSE,160,8.0,12.0,57,0.00,CLR,,0.00,WeatherDisplay:10.37,2013-07-17 15:07:00,
2013-07-17 11:12:00,80.8,64.1,30.17,SSE,158,9.0,10.0,57,0.00,CLR,,0.00,WeatherDisplay:10.37,2013-07-17 15:12:00,
2013-07-17 11:22:00,80.7,64.1,30.17,SSE,162,10.0,12.0,57,0.00,CLR,,0.00,WeatherDisplay:10.37,2013-07-17 15:22:00,
2013-07-17 11:32:00,81.0,64.3,30.16,SSE,164,10.0,13.0,57,0.00,CLR,,0.00,WeatherDisplay:10.37,2013-07-17 15:32:00,
2013-07-17 11:43:00,81.2,64.5,30.16,SSE,163,9.0,13.0,57,0.00,CLR,,0.00,WeatherDisplay:10.37,2013-07-17 15:43:00,
2013-07-17 11:52:00,81.7,65.0,30.16,South,169,9.0,12.0,57,0.00,CLR,,0.00,WeatherDisplay:10.37,2013-07-17 15:52:00,
2013-07-17 12:02:00,81.6,64.9,30.16,SSE,164,12.0,13.0,57,0.00,CLR,,0.00,WeatherDisplay:10.37,2013-07-17 16:02:00,
2013-07-17 12:07:00,81.6,64.4,30.16,SSE,164,10.0,13.0,56,0.00,CLR,,0.00,WeatherDisplay:10.37,2013-07-17 16:07:00,
2013-07-17 12:12:00,81.6,64.4,30.15,SSE,164,12.0,13.0,56,0.00,CLR,,0.00,WeatherDisplay:10.37,2013-07-17 16:12:00,
2013-07-17 12:22:00,81.6,64.4,30.15,SSE,159,10.0,14.0,56,0.00,CLR,,0.00,WeatherDisplay:10.37,2013-07-17 16:22:00,
2013-07-17 12:32:00,81.4,64.2,30.15,SSE,157,12.0,13.0,56,0.00,CLR,,0.00,WeatherDisplay:10.37,2013-07-17 16:32:00,
2013-07-17 12:42:00,81.7,64.5,30.15,SSE,158,10.0,13.0,56,0.00,CLR,,0.00,WeatherDisplay:10.37,2013-07-17 16:42:00,
2013-07-17 12:52:00,81.7,64.5,30.14,SSE,159,12.0,14.0,56,0.00,CLR,,0.00,WeatherDisplay:10.37,2013-07-17 16:52:00,
2013-07-17 13:02:00,81.7,64.5,30.14,SSE,159,12.0,15.0,56,0.00,CLR,,0.00,WeatherDisplay:10.37,2013-07-17 17:02:00,
2013-07-17 13:12:00,82.1,63.2,30.14,SSE,158,10.0,15.0,53,0.00,CLR,,0.00,WeatherDisplay:10.37,2013-07-17 17:12:00,
2013-07-17 13:22:00,82.4,63.5,30.14,SSE,163,10.0,16.0,53,0.00,CLR,,0.00,WeatherDisplay:10.37,2013-07-17 17:22:00,
2013-07-17 13:32:00,82.3,63.5,30.14,SSE,165,13.0,15.0,53,0.00,CLR,,0.00,WeatherDisplay:10.37,2013-07-17 17:32:00,
2013-07-17 13:42:00,81.6,62.8,30.14,SSE,162,12.0,15.0,53,0.00,CLR,,0.00,WeatherDisplay:10.37,2013-07-17 17:42:00,
2013-07-17 13:52:00,81.4,62.6,30.14,SSE,158,13.0,16.0,53,0.00,CLR,,0.00,WeatherDisplay:10.37,2013-07-17 17:52:00,
2013-07-17 14:02:00,82.9,64.0,30.13,South,177,9.0,12.0,53,0.00,CLR,,0.00,WeatherDisplay:10.37,2013-07-17 18:02:00,
2013-07-17 14:07:00,83.4,62.3,30.13,South,186,7.0,13.0,49,0.00,CLR,,0.00,WeatherDisplay:10.37,2013-07-17 18:07:00,
2013-07-17 14:17:00,83.7,62.5,30.13,South,176,10.0,14.0,49,0.00,CLR,,0.00,WeatherDisplay:10.37,2013-07-17 18:17:00,
2013-07-17 14:22:00,83.5,62.3,30.13,South,176,8.0,15.0,49,0.00,CLR,,0.00,WeatherDisplay:10.37,2013-07-17 18:22:00,
2013-07-17 14:32:00,83.5,62.4,30.13,South,178,8.0,16.0,49,0.00,CLR,,0.00,WeatherDisplay:10.37,2013-07-17 18:32:00,
2013-07-17 14:42:00,84.0,62.8,30.12,SSW,202,8.0,14.0,49,0.00,CLR,,0.00,WeatherDisplay:10.37,2013-07-17 18:42:00,
2013-07-17 14:52:00,84.4,63.2,30.12,SSW,197,7.0,12.0,49,0.00,CLR,,0.00,WeatherDisplay:10.37,2013-07-17 18:52:00,
2013-07-17 15:02:00,84.2,63.0,30.12,SSW,210,8.0,13.0,49,0.00,CLR,,0.00,WeatherDisplay:10.37,2013-07-17 19:02:00,
2013-07-17 15:07:00,84.2,64.1,30.12,SSW,213,8.0,12.0,51,0.00,CLR,,0.00,WeatherDisplay:10.37,2013-07-17 19:07:00,
2013-07-17 15:12:00,84.0,64.0,30.12,SSW,210,9.0,14.0,51,0.00,CLR,,0.00,WeatherDisplay:10.37,2013-07-17 19:12:00,
2013-07-17 15:22:00,83.7,63.7,30.11,South,185,9.0,17.0,51,0.00,CLR,,0.00,WeatherDisplay:10.37,2013-07-17 19:22:00,
2013-07-17 15:32:00,83.3,63.3,30.11,SSW,197,9.0,14.0,51,0.00,CLR,,0.00,WeatherDisplay:10.37,2013-07-17 19:32:00,
2013-07-17 15:42:00,83.4,63.4,30.11,SW,228,7.0,12.0,51,0.00,CLR,,0.00,WeatherDisplay:10.37,2013-07-17 19:42:00,
2013-07-17 15:52:00,82.6,62.6,30.10,SW,221,9.0,16.0,51,0.00,CLR,,0.00,WeatherDisplay:10.37,2013-07-17 19:52:00,
2013-07-17 16:02:00,82.1,62.2,30.10,SSW,210,8.0,14.0,51,0.00,CLR,,0.00,WeatherDisplay:10.37,2013-07-17 20:02:00,
2013-07-17 16:07:00,82.3,62.4,30.09,SW,217,8.0,16.0,51,0.00,CLR,,0.00,WeatherDisplay:10.37,2013-07-17 20:07:00,
2013-07-17 16:17:00,82.1,62.2,30.09,SW,214,9.0,15.0,51,0.00,CLR,,0.00,WeatherDisplay:10.37,2013-07-17 20:17:00,
2013-07-17 16:22:00,82.1,62.2,30.09,SW,223,5.0,12.0,51,0.00,CLR,,0.00,WeatherDisplay:10.37,2013-07-17 20:22:00,
2013-07-17 16:32:00,82.1,62.2,30.09,SSW,203,7.0,12.0,51,0.00,CLR,,0.00,WeatherDisplay:10.37,2013-07-17 20:32:00,
2013-07-17 16:38:00,81.7,61.8,30.09,SSW,210,6.0,13.0,51,0.00,CLR,,0.00,WeatherDisplay:10.37,2013-07-17 20:38:00,
2013-07-17 16:47:00,81.2,61.4,30.08,SSW,200,8.0,15.0,51,0.00,CLR,,0.00,WeatherDisplay:10.37,2013-07-17 20:47:00,
2013-07-17 16:52:00,80.9,61.1,30.08,SW,214,8.0,15.0,51,0.00,CLR,,0.00,WeatherDisplay:10.37,2013-07-17 20:52:00,
2013-07-17 17:02:00,80.5,60.7,30.08,SW,217,8.0,14.0,51,0.00,CLR,,0.00,WeatherDisplay:10.37,2013-07-17 21:02:00,
2013-07-17 17:07:00,80.7,60.9,30.08,SW,214,6.0,12.0,51,0.00,CLR,,0.00,WeatherDisplay:10.37,2013-07-17 21:07:00,
2013-07-17 17:12:00,80.5,60.7,30.08,SSW,212,9.0,12.0,51,0.00,CLR,,0.00,WeatherDisplay:10.37,2013-07-17 21:12:00,
2013-07-17 17:22:00,80.1,60.8,30.08,SSW,205,9.0,14.0,52,0.00,CLR,,0.00,WeatherDisplay:10.37,2013-07-17 21:22:00,
2013-07-17 17:32:00,79.9,60.7,30.08,SSW,196,10.0,16.0,52,0.00,CLR,,0.00,WeatherDisplay:10.37,2013-07-17 21:32:00,
2013-07-17 17:42:00,79.6,60.4,30.08,SSW,205,6.0,12.0,52,0.00,CLR,,0.00,WeatherDisplay:10.37,2013-07-17 21:42:00,
2013-07-17 17:52:00,79.8,60.6,30.07,SSW,204,9.0,15.0,52,0.00,CLR,,0.00,WeatherDisplay:10.37,2013-07-17 21:52:00,
2013-07-17 18:02:00,79.4,60.2,30.07,SSW,205,7.0,16.0,52,0.00,CLR,,0.00,WeatherDisplay:10.37,2013-07-17 22:02:00,
2013-07-17 18:12:00,79.3,62.2,30.07,SSW,201,9.0,13.0,56,0.00,CLR,,0.00,WeatherDisplay:10.37,2013-07-17 22:12:00,
2013-07-17 18:22:00,79.1,62.1,30.07,SSW,200,8.0,16.0,56,0.00,CLR,,0.00,WeatherDisplay:10.37,2013-07-17 22:22:00,
2013-07-17 18:32:00,79.0,62.0,30.07,SW,217,5.0,9.0,56,0.00,CLR,,0.00,WeatherDisplay:10.37,2013-07-17 22:32:00,
2013-07-17 18:37:00,78.8,61.8,30.07,SSW,211,9.0,16.0,56,0.00,CLR,,0.00,WeatherDisplay:10.37,2013-07-17 22:37:00,
2013-07-17 18:42:00,78.7,61.7,30.07,SSW,212,7.0,16.0,56,0.00,CLR,,0.00,WeatherDisplay:10.37,2013-07-17 22:42:00,
2013-07-17 18:48:00,78.6,61.6,30.06,SSW,207,6.0,12.0,56,0.00,CLR,,0.00,WeatherDisplay:10.37,2013-07-17 22:48:00,
2013-07-17 18:57:00,78.5,61.5,30.06,SSW,203,6.0,12.0,56,0.00,CLR,,0.00,WeatherDisplay:10.37,2013-07-17 22:57:00,
2013-07-17 19:07:00,78.2,65.0,30.05,SSW,210,9.0,14.0,64,0.00,CLR,,0.00,WeatherDisplay:10.37,2013-07-17 23:07:00,
2013-07-17 19:12:00,78.0,64.8,30.05,SSW,206,6.0,14.0,64,0.00,CLR,,0.00,WeatherDisplay:10.37,2013-07-17 23:12:00,
2013-07-17 19:22:00,77.9,64.7,30.06,SSW,203,7.0,10.0,64,0.00,CLR,,0.00,WeatherDisplay:10.37,2013-07-17 23:22:00,
2013-07-17 19:32:00,77.8,64.6,30.05,SW,214,8.0,12.0,64,0.00,CLR,,0.00,WeatherDisplay:10.37,2013-07-17 23:32:00,
2013-07-17 19:42:00,77.6,64.5,30.05,SSW,209,9.0,14.0,64,0.00,CLR,,0.00,WeatherDisplay:10.37,2013-07-17 23:42:00,
2013-07-17 19:52:00,77.5,64.3,30.04,SW,218,7.0,12.0,64,0.00,CLR,,0.00,WeatherDisplay:10.37,2013-07-17 23:52:00,
2013-07-17 20:02:00,77.3,64.2,30.05,SSW,201,8.0,12.0,64,0.00,CLR,,0.00,WeatherDisplay:10.37,2013-07-18 00:02:00,
2013-07-17 20:07:00,77.1,69.7,30.05,SW,219,8.0,12.0,78,0.00,CLR,,0.00,WeatherDisplay:10.37,2013-07-18 00:07:00,
2013-07-17 20:12:00,77.1,69.7,30.05,SW,218,5.0,10.0,78,0.00,CLR,,0.00,WeatherDisplay:10.37,2013-07-18 00:12:00,
2013-07-17 20:22:00,76.9,69.5,30.06,SW,225,3.0,9.0,78,0.00,CLR,,0.00,WeatherDisplay:10.37,2013-07-18 00:22:00,
2013-07-17 20:32:00,76.8,69.4,30.06,SW,228,5.0,9.0,78,0.00,CLR,,0.00,WeatherDisplay:10.37,2013-07-18 00:32:00,
2013-07-17 20:42:00,76.7,69.3,30.06,SSW,212,2.0,8.0,78,0.00,CLR,,0.00,WeatherDisplay:10.37,2013-07-18 00:42:00,
2013-07-17 20:52:00,76.7,69.3,30.06,SW,221,3.0,6.0,78,0.00,CLR,,0.00,WeatherDisplay:10.37,2013-07-18 00:52:00,
2013-07-17 20:57:00,76.6,69.2,30.06,SSW,210,2.0,6.0,78,0.00,CLR,,0.00,WeatherDisplay:10.37,2013-07-18 00:57:00,
2013-07-17 21:07:00,76.5,68.4,30.07,SW,231,2.0,6.0,76,0.00,CLR,,0.00,WeatherDisplay:10.37,2013-07-18 01:07:00,
2013-07-17 21:12:00,76.5,68.4,30.07,WSW,244,0.0,4.0,76,0.00,CLR,,0.00,WeatherDisplay:10.37,2013-07-18 01:12:00,
2013-07-17 21:22:00,76.4,68.3,30.07,SW,230,2.0,6.0,76,0.00,CLR,,0.00,WeatherDisplay:10.37,2013-07-18 01:22:00,
2013-07-17 21:32:00,76.3,68.2,30.07,SW,236,2.0,6.0,76,0.00,CLR,,0.00,WeatherDisplay:10.37,2013-07-18 01:32:00,
2013-07-17 21:42:00,76.3,68.1,30.06,SW,229,2.0,5.0,76,0.00,CLR,,0.00,WeatherDisplay:10.37,2013-07-18 01:42:00,
2013-07-17 21:52:00,76.2,68.1,30.06,SW,223,2.0,5.0,76,0.00,CLR,,0.00,WeatherDisplay:10.37,2013-07-18 01:52:00,
2013-07-17 22:02:00,76.2,68.1,30.06,SW,219,2.0,7.0,76,0.00,CLR,,0.00,WeatherDisplay:10.37,2013-07-18 02:02:00,
2013-07-17 22:07:00,76.3,68.9,30.07,SW,223,2.0,6.0,78,0.00,CLR,,0.00,WeatherDisplay:10.37,2013-07-18 02:07:00,
2013-07-17 22:12:00,76.3,68.9,30.06,SW,232,1.0,7.0,78,0.00,CLR,,0.00,WeatherDisplay:10.37,2013-07-18 02:12:00,
2013-07-17 22:22:00,76.3,68.9,30.06,SW,234,0.0,6.0,78,0.00,CLR,,0.00,WeatherDisplay:10.37,2013-07-18 02:22:00,
2013-07-17 22:32:00,76.3,68.9,30.06,SW,233,1.0,7.0,78,0.00,CLR,,0.00,WeatherDisplay:10.37,2013-07-18 02:32:00,
2013-07-17 22:42:00,76.3,68.9,30.06,SW,229,2.0,6.0,78,0.00,CLR,,0.00,WeatherDisplay:10.37,2013-07-18 02:42:00,
2013-07-17 22:52:00,76.2,68.9,30.06,SW,234,2.0,9.0,78,0.00,CLR,,0.00,WeatherDisplay:10.37,2013-07-18 02:52:00,
2013-07-17 23:02:00,76.2,68.8,30.06,SW,221,2.0,6.0,78,0.00,CLR,,0.00,WeatherDisplay:10.37,2013-07-18 03:02:00,
2013-07-17 23:12:00,76.2,70.0,30.06,SW,226,2.0,5.0,81,0.00,CLR,,0.00,WeatherDisplay:10.37,2013-07-18 03:12:00,
2013-07-17 23:22:00,76.3,70.0,30.05,SW,228,3.0,9.0,81,0.00,CLR,,0.00,WeatherDisplay:10.37,2013-07-18 03:22:00,
2013-07-17 23:28:00,76.3,70.0,30.05,WSW,245,1.0,9.0,81,0.00,CLR,,0.00,WeatherDisplay:10.37,2013-07-18 03:28:00,
2013-07-17 23:37:00,76.3,70.0,30.05,WSW,241,2.0,5.0,81,0.00,CLR,,0.00,WeatherDisplay:10.37,2013-07-18 03:37:00,
2013-07-17 23:42:00,76.3,70.0,30.05,WSW,245,1.0,5.0,81,0.00,CLR,,0.00,WeatherDisplay:10.37,2013-07-18 03:42:00,
2013-07-17 23:52:00,76.3,70.0,30.05,SW,229,2.0,6.0,81,0.00,CLR,,0.00,WeatherDisplay:10.37,2013-07-18 03:52:00,